Terminal Aerodrome Forecast
Issued by NWS Raleigh/Durham, NC

Current Version | Previous Version | Text Only | Print | Product List | Glossary On
Versions: 1 2 3 4 5 6 7 8 9 10 11 12 13 14 15
000 FTUS42 KRAH 271720 TAFFAY TAF KFAY 271720Z 2718/2818 24007KT P6SM SCT060 FM272000 24007KT P6SM BKN060 TEMPO 2720/2724 VRB20G40KT 2SM TSRA BKN025CB FM280500 VRB03KT P6SM SCT250=

USA.gov is the U.S. government's official web portal to all federal, state and local government web resources and services.